Scaly Mountain, North Carolina
Current Conditions -  °F | °C
As of 3:35 AM on Monday 26 Jan 2015 (Local Time) from KTOC Reporting Station
Scattered Clouds Scattered Clouds  
Wind Chill: 38°   Ceiling: Unl
Heat Index: 43°   Visibility: 10mi
Dew Point: 40°   Wind: 8mph
Humidity: 88%   Direction: 240°WSW
Pressure: 29.66"   Gusts: NA
Location:  35.04°N, 83.28°W
Report Text: KTOC 260835Z AUTO 24007KT 10SM SCT100 06/04 A2966 RMK AO2 T00620044
Loading
Personal Weather Stations






























Interactive Weather Map New forecast layout! Learn more

10-Day Weather Forecast

Advertisements
Track Severe Weather on mobile